Norwegian Epic — C6XP7 — position and weather

sailwx.info

Track history (hours):
 
Tides and Currents Weather Stations Pressure Air Temp Water Temp Dewpoint Dewpoint Depression Visibility Wind Speed Wind Dir Waves Ship Positions

Norwegian Epic

Last reported at 2019-Jul-20 14:00 UTC. Time now 2019-Jul-20 14:22 UTC.
Position N 39°33' E 002°38'.

Length 329 m; draft 9.2 m.

Type: Passenger vessel. MMSI: 311018500.

Date/timePositionNaut miles runAvg speedWind from/ knotsBaromVisibWave heightAir tempDewpointWater temp
2019-Jul-20 14:00N 39°33' E 002°38'0 0.0
2019-Jul-20 13:28N 39°33' E 002°38'0 0.0
2019-Jul-20 12:58N 39°33' E 002°38'0 0.0
2019-Jul-20 12:28N 39°33' E 002°38'0 0.0
2019-Jul-20 11:59N 39°33' E 002°38'0 0.0
2019-Jul-20 11:29N 39°33' E 002°38'0 0.0
2019-Jul-20 10:59N 39°33' E 002°38'0 0.0
2019-Jul-20 10:30N 39°33' E 002°38'1 1.8
2019-Jul-20 10:00N 39°32' E 002°39'612.0
2019-Jul-20 09:30N 39°27' E 002°35'815.4
2019-Jul-20 09:00N 39°27' E 002°25'1018.1
2019-Jul-20 08:28N 39°34' E 002°16'2518.4
2019-Jul-20 07:05N 39°54' E 002°35'520.1
2019-Jul-20 06:50N 39°57' E 002°40'920.1
2019-Jul-20 06:24N 40°04' E 002°48'718.9
2019-Jul-20 06:01N 40°09' E 002°55'917.6
2019-Jul-20 05:29N 40°16' E 003°03'2418.7
2019-Jul-20 04:13N 40°33' E 003°23'420.7
2019-Jul-20 04:01N 40°37' E 003°27'3620.8
2019-Jul-20 02:17N 41°02' E 004°01'1021.0
2019-Jul-20 01:47N 41°09' E 004°10'721.1
2019-Jul-20 01:27N 41°15' E 004°17'921.0
2019-Jul-20 01:00N 41°21' E 004°26'141182.0
2019-Jul-20 01:00N 41°12' E 004°12'2449.9 180 / 121015.010.8 26.019.926.0
2019-Jul-20 00:31N 41°28' E 004°36'1121.1
2019-Jul-20 00:01N 41°36' E 004°46'1021.0
2019-Jul-19 23:31N 41°43' E 004°56'1121.1
2019-Jul-19 23:00N 41°51' E 005°06'1121.5
2019-Jul-19 22:30N 41°58' E 005°16'1121.3
2019-Jul-19 22:00N 42°06' E 005°26'1021.4
2019-Jul-19 21:31N 42°14' E 005°36'1121.5
2019-Jul-19 21:00N 42°21' E 005°46'1021.3
2019-Jul-19 20:31N 42°29' E 005°56'1121.1
2019-Jul-19 20:01N 42°37' E 006°06'1121.3
2019-Jul-19 19:31N 42°45' E 006°15'1121.4
2019-Jul-19 19:01N 42°52' E 006°26'1121.4
2019-Jul-19 18:31N 42°59' E 006°36'1121.1
2019-Jul-19 18:00N 43°07' E 006°47'1020.7
2019-Jul-19 17:31N 43°16' E 006°52'918.4
2019-Jul-19 17:00N 43°25' E 006°57'714.0
2019-Jul-19 16:30N 43°31' E 007°00'1 2.1
2019-Jul-19 15:59N 43°32' E 007°01'0 0.4
2019-Jul-19 15:26N 43°32' E 007°01'0 0.1
2019-Jul-19 15:00N 43°32' E 007°01'0 0.0
2019-Jul-19 14:30N 43°32' E 007°01'0 0.0
2019-Jul-19 13:57N 43°32' E 007°01'0 0.0
2019-Jul-19 13:28N 43°32' E 007°01'0 0.0
2019-Jul-19 12:58N 43°32' E 007°01'0 0.0
2019-Jul-19 12:28N 43°32' E 007°01'0 0.0
2019-Jul-19 11:59N 43°32' E 007°01'0 0.0
2019-Jul-19 11:29N 43°32' E 007°01'0 0.0
2019-Jul-19 10:59N 43°32' E 007°01'0 0.0
2019-Jul-19 10:30N 43°32' E 007°01'0 0.0
2019-Jul-19 10:00N 43°32' E 007°01'0 0.0
2019-Jul-19 09:30N 43°32' E 007°01'0 0.0
2019-Jul-19 08:58N 43°32' E 007°01'0 0.0
2019-Jul-19 08:28N 43°32' E 007°01'0 0.0
2019-Jul-19 07:58N 43°32' E 007°01'0 0.0
2019-Jul-19 07:29N 43°32' E 007°01'0 0.1
2019-Jul-19 06:59N 43°32' E 007°01'0 0.0
2019-Jul-19 06:29N 43°32' E 007°01'0 0.0
2019-Jul-19 06:00N 43°32' E 007°01'0 0.0
2019-Jul-19 05:30N 43°32' E 007°01'0 0.0
2019-Jul-19 05:00N 43°32' E 007°01'1 1.4
2019-Jul-19 04:30N 43°31' E 007°01'510.8
2019-Jul-19 04:01N 43°28' E 007°06'917.1
2019-Jul-19 03:30N 43°28' E 007°18'917.1
2019-Jul-19 03:00N 43°28' E 007°30'816.8
2019-Jul-19 02:30N 43°29' E 007°42'816.9
2019-Jul-19 02:01N 43°29' E 007°53'917.0
2019-Jul-19 01:30N 43°29' E 008°05'713.4
2019-Jul-19 01:00N 43°29' E 008°14'713.1
2019-Jul-19 00:30N 43°29' E 008°23'713.0
2019-Jul-19 00:00N 43°30' E 008°32'612.8
2019-Jul-18 23:30N 43°30' E 008°41'612.7
2019-Jul-18 23:00N 43°30' E 008°49'612.6
2019-Jul-18 22:30N 43°30' E 008°58'612.2
2019-Jul-18 22:00N 43°31' E 009°07'611.8
2019-Jul-18 21:30N 43°31' E 009°15'612.0
2019-Jul-18 21:00N 43°31' E 009°23'612.3
2019-Jul-18 20:30N 43°31' E 009°31'612.4
2019-Jul-18 20:00N 43°31' E 009°40'612.2
2019-Jul-18 19:30N 43°32' E 009°48'612.1
2019-Jul-18 19:00N 43°31' E 009°57'611.8
2019-Jul-18 18:30N 43°30' E 010°05'611.3
2019-Jul-18 18:00N 43°31' E 010°12'4 8.6
2019-Jul-18 17:30N 43°33' E 010°18'0 0.6
2019-Jul-18 16:57N 43°33' E 010°18'0 0.0
2019-Jul-18 16:30N 43°33' E 010°18'0 0.0
2019-Jul-18 16:00N 43°33' E 010°18'0 0.0
2019-Jul-18 15:28N 43°33' E 010°18'0 0.0
2019-Jul-18 14:58N 43°33' E 010°18'0 0.0
2019-Jul-18 14:28N 43°33' E 010°18'0 0.0
2019-Jul-18 13:59N 43°33' E 010°18'0 0.0
2019-Jul-18 13:29N 43°33' E 010°18'0 0.0
2019-Jul-18 12:59N 43°33' E 010°18'0 0.0
2019-Jul-18 12:30N 43°33' E 010°18'0 0.0
2019-Jul-18 12:00N 43°33' E 010°18'0 0.0
2019-Jul-18 11:30N 43°33' E 010°18'0 0.0
2019-Jul-18 10:58N 43°33' E 010°18'0 0.0
2019-Jul-18 10:28N 43°33' E 010°18'0 0.0
2019-Jul-18 09:55N 43°33' E 010°18'0 0.0
2019-Jul-18 09:29N 43°33' E 010°18'0 0.0
2019-Jul-18 08:59N 43°33' E 010°18'0 0.0
2019-Jul-18 08:29N 43°33' E 010°18'0 0.0
2019-Jul-18 08:00N 43°33' E 010°18'0 0.0
2019-Jul-18 07:30N 43°33' E 010°18'0 0.0
2019-Jul-18 07:00N 43°33' E 010°18'0 0.0
2019-Jul-18 06:25N 43°33' E 010°18'0 0.0
2019-Jul-18 05:58N 43°33' E 010°18'0 0.0
2019-Jul-18 05:28N 43°33' E 010°18'0 0.0
2019-Jul-18 04:59N 43°33' E 010°18'0 0.6
2019-Jul-18 04:30N 43°33' E 010°18'3 6.3
2019-Jul-18 04:00N 43°31' E 010°15'713.1
2019-Jul-18 03:30N 43°25' E 010°11'815.3
2019-Jul-18 03:00N 43°17' E 010°09'816.6
2019-Jul-18 02:30N 43°09' E 010°06'816.6
2019-Jul-18 02:00N 43°01' E 010°03'816.3
2019-Jul-18 01:30N 42°53' E 009°60'816.2
2019-Jul-18 01:00N 42°45' E 009°57'816.4
2019-Jul-18 00:30N 42°37' E 009°55'816.5
2019-Jul-18 00:00N 42°29' E 009°55'1016.3
2019-Jul-17 23:23N 42°19' E 009°55'4118.5
2019-Jul-17 21:09N 42°02' E 010°46'318.9
2019-Jul-17 21:00N 42°01' E 010°50'918.8
2019-Jul-17 20:30N 41°58' E 011°01'1018.7
2019-Jul-17 19:58N 41°57' E 011°15'817.7
2019-Jul-17 19:30N 41°58' E 011°26'114 5.0
2019-Jul-16 20:42N 40°34' E 013°08'420.2
2019-Jul-16 20:30N 40°33' E 013°13'1020.4
2019-Jul-16 20:00N 40°31' E 013°26'1020.2
2019-Jul-16 19:31N 40°29' E 013°39'816.0
2019-Jul-16 19:01N 40°30' E 013°50'816.7
2019-Jul-16 18:30N 40°36' E 013°58'918.4
2019-Jul-16 18:00N 40°41' E 014°08'918.4
2019-Jul-16 17:30N 40°48' E 014°16'2 4.7
2019-Jul-16 16:59N 40°50' E 014°16'0 0.0
2019-Jul-16 16:29N 40°50' E 014°16'0 0.0
2019-Jul-16 16:00N 40°50' E 014°16'0 0.0
2019-Jul-16 15:30N 40°50' E 014°16'0 0.0
2019-Jul-16 15:00N 40°50' E 014°16'0 0.0
2019-Jul-16 14:28N 40°50' E 014°16'0 0.0
2019-Jul-16 13:58N 40°50' E 014°16'0 0.0
2019-Jul-16 13:28N 40°50' E 014°16'0 0.0
2019-Jul-16 12:59N 40°50' E 014°16'0 0.0
2019-Jul-16 12:29N 40°50' E 014°16'0 0.0
2019-Jul-16 11:59N 40°50' E 014°16'0 0.0
2019-Jul-16 11:30N 40°50' E 014°16'0 0.0
2019-Jul-16 11:00N 40°50' E 014°16'0 0.0
2019-Jul-16 10:27N 40°50' E 014°16'0 0.0
2019-Jul-16 09:58N 40°50' E 014°16'0 0.0
2019-Jul-16 09:28N 40°50' E 014°16'0 0.0
2019-Jul-16 08:55N 40°50' E 014°16'0 0.0
2019-Jul-16 08:29N 40°50' E 014°16'0 0.0
2019-Jul-16 07:59N 40°50' E 014°16'0 0.0
2019-Jul-16 07:29N 40°50' E 014°16'0 0.0
2019-Jul-16 07:00N 40°50' E 014°16'0 0.0
2019-Jul-16 06:30N 40°50' E 014°16'0 0.0
2019-Jul-16 06:00N 40°50' E 014°16'0 0.0
2019-Jul-16 05:28N 40°50' E 014°16'0 0.0
2019-Jul-16 04:58N 40°50' E 014°16'0 0.3
2019-Jul-16 04:30N 40°50' E 014°16'2 3.4
2019-Jul-16 04:00N 40°49' E 014°17'713.1
2019-Jul-16 03:30N 40°44' E 014°12'816.2
2019-Jul-16 03:00N 40°39' E 014°04'815.9
2019-Jul-16 02:30N 40°38' E 013°53'815.9
2019-Jul-16 02:00N 40°39' E 013°43'815.9
2019-Jul-16 01:30N 40°40' E 013°32'714.1
2019-Jul-16 01:00N 40°36' E 013°24'30615.3 050 / 351005.010.8 23.018.324.0
2019-Jul-15 05:00N 41°12' E 006°42'7719.2 270 / 25 27.0 24.0 26.0
2019-Jul-15 01:00N 41°12' E 005°00'2913.7 300 / 35 10.8 25.022.026.0
2019-Jul-14 22:52N 41°16' E 004°22'716.7
2019-Jul-14 22:28N 41°16' E 004°13'716.6
2019-Jul-14 22:00N 41°16' E 004°03'816.4
2019-Jul-14 21:30N 41°16' E 003°52'816.5
2019-Jul-14 21:00N 41°16' E 003°41'816.7
2019-Jul-14 20:30N 41°16' E 003°30'816.8
2019-Jul-14 20:00N 41°16' E 003°19'816.8
2019-Jul-14 19:31N 41°16' E 003°07'4315.9
2019-Jul-14 16:48N 41°18' E 002°10'4 0.9
2019-Jul-14 13:06N 41°22' E 002°11'0 0.0
2019-Jul-14 13:00N 41°22' E 002°11'0 0.0
2019-Jul-14 12:30N 41°22' E 002°11'0 0.0
2019-Jul-14 11:58N 41°22' E 002°11'0 0.0
2019-Jul-14 11:28N 41°22' E 002°11'0 0.0
2019-Jul-14 10:58N 41°22' E 002°11'0 0.0
2019-Jul-14 10:29N 41°22' E 002°11'0 0.0
2019-Jul-14 09:59N 41°22' E 002°11'0 0.0
2019-Jul-14 09:29N 41°22' E 002°11'0 0.0
2019-Jul-14 09:00N 41°22' E 002°11'3 0.5
2019-Jul-14 02:03N 41°18' E 002°10'0 7.3
2019-Jul-14 02:00N 41°18' E 002°11'1015.0
2019-Jul-14 01:20N 41°08' E 002°11'2015.3
2019-Jul-14 00:00N 40°48' E 002°06'7919.6 050 / 101012.010.8 25.022.026.0
2019-Jul-13 20:00N 39°30' E 002°18'4 6.9 100 / 101013.010.8 27.0 28.0
2019-Jul-13 19:25N 39°29' E 002°23'715.5
2019-Jul-13 19:00N 39°25' E 002°30'815.3
2019-Jul-13 18:30N 39°31' E 002°37'2 4.8
2019-Jul-13 18:00N 39°33' E 002°38'0 0.0
2019-Jul-13 17:30N 39°33' E 002°38'0 0.0
2019-Jul-13 17:00N 39°33' E 002°38'0 0.0
2019-Jul-13 16:30N 39°33' E 002°38'0 0.0
2019-Jul-13 16:01N 39°33' E 002°38'0 0.0
2019-Jul-13 15:28N 39°33' E 002°38'0 0.0
2019-Jul-13 14:58N 39°33' E 002°38'0 0.0
2019-Jul-13 14:29N 39°33' E 002°38'0 0.0
2019-Jul-13 13:59N 39°33' E 002°38'0 0.0
2019-Jul-13 13:29N 39°33' E 002°38'0 0.0
2019-Jul-13 13:00N 39°33' E 002°38'0 0.0
2019-Jul-13 12:18N 39°33' E 002°38'0 0.0
2019-Jul-13 12:00N 39°33' E 002°38'0 0.0
2019-Jul-13 11:31N 39°33' E 002°38'0 0.0
2019-Jul-13 10:58N 39°33' E 002°38'0 0.0
2019-Jul-13 10:30N 39°33' E 002°38'1 2.7
2019-Jul-13 10:00N 39°32' E 002°38'815.8
2019-Jul-13 09:30N 39°25' E 002°32'2914.1
2019-Jul-13 07:27N 39°54' E 002°37'1721.6
2019-Jul-13 06:38N 40°07' E 002°52'1022.4
2019-Jul-13 06:11N 40°15' E 003°01'10320.4
2019-Jul-13 01:07N 41°28' E 004°37'219.8
2019-Jul-13 01:00N 41°30' E 004°39'2133.6
2019-Jul-13 01:00N 41°30' E 004°36'1123.6 270 / 361012.010.8 26.021.526.0
2019-Jul-13 00:30N 41°37' E 004°48'1019.6
2019-Jul-13 00:00N 41°44' E 004°58'1019.6
2019-Jul-12 23:30N 41°50' E 005°07'1019.5
2019-Jul-12 23:00N 41°57' E 005°17'1019.2
2019-Jul-12 22:30N 42°04' E 005°26'1019.2
2019-Jul-12 22:00N 42°11' E 005°35'5381.8
2019-Jul-12 22:00N 42°12' E 005°42'2516.5 270 / 351012.010.8 25.0 27.0
2019-Jul-12 20:29N 42°32' E 006°01'919.4
2019-Jul-12 20:00N 42°39' E 006°10'1019.3
2019-Jul-12 19:28N 42°46' E 006°21'1019.0
2019-Jul-12 18:57N 42°53' E 006°30'919.7
2019-Jul-12 18:30N 42°60' E 006°38'1020.1
2019-Jul-12 18:00N 43°07' E 006°47'1020.8
2019-Jul-12 17:30N 43°17' E 006°53'1019.7
2019-Jul-12 17:00N 43°26' E 006°58'612.5
2019-Jul-12 16:30N 43°32' E 007°00'1 1.2
2019-Jul-12 16:00N 43°32' E 007°01'0 0.2
2019-Jul-12 15:30N 43°32' E 007°01'0 0.0
2019-Jul-12 15:00N 43°32' E 007°01'0 0.0
2019-Jul-12 14:28N 43°32' E 007°01'0 0.0
2019-Jul-12 13:58N 43°32' E 007°01'0 0.0
2019-Jul-12 13:28N 43°32' E 007°01'0 0.0
2019-Jul-12 12:59N 43°32' E 007°01'0 0.0
2019-Jul-12 12:26N 43°32' E 007°01'0 0.0
2019-Jul-12 11:59N 43°32' E 007°01'0 0.0
2019-Jul-12 11:30N 43°32' E 007°01'0 0.0
2019-Jul-12 11:00N 43°32' E 007°01'0 0.0
2019-Jul-12 10:30N 43°32' E 007°01'0 0.0
2019-Jul-12 09:58N 43°32' E 007°01'0 0.0
2019-Jul-12 09:28N 43°32' E 007°01'0 0.0
2019-Jul-12 08:58N 43°32' E 007°01'0 0.0
2019-Jul-12 08:29N 43°32' E 007°01'0 0.0
2019-Jul-12 07:59N 43°32' E 007°01'0 0.0
2019-Jul-12 07:29N 43°32' E 007°01'0 0.0
2019-Jul-12 06:57N 43°32' E 007°01'0 0.0
2019-Jul-12 06:30N 43°32' E 007°01'0 0.0
2019-Jul-12 06:00N 43°32' E 007°01'0 0.0
2019-Jul-12 05:28N 43°32' E 007°01'0 0.0
2019-Jul-12 04:58N 43°32' E 007°01'1 1.2
2019-Jul-12 04:30N 43°32' E 007°01'5 9.7
2019-Jul-12 04:00N 43°28' E 007°05'816.4
2019-Jul-12 03:30N 43°29' E 007°17'816.6
2019-Jul-12 03:00N 43°28' E 007°28'1716.8
2019-Jul-12 02:00N 43°29' E 007°51'816.7
2019-Jul-12 01:30N 43°29' E 008°03'816.6
2019-Jul-12 01:00N 43°29' E 008°14'713.7
2019-Jul-12 00:30N 43°30' E 008°24'612.4
2019-Jul-12 00:01N 43°30' E 008°32'612.4
2019-Jul-11 23:31N 43°30' E 008°41'712.3
2019-Jul-11 22:58N 43°30' E 008°50'612.3
2019-Jul-11 22:30N 43°30' E 008°58'612.4
2019-Jul-11 22:00N 43°31' E 009°06'612.3
2019-Jul-11 21:30N 43°31' E 009°15'612.3
2019-Jul-11 21:01N 43°31' E 009°23'612.1
2019-Jul-11 20:30N 43°31' E 009°32'612.2
2019-Jul-11 20:00N 43°31' E 009°40'3189.5
2019-Jul-11 20:00N 43°30' E 009°36'918.7 200 / 51012.010.8 25.0 28.0
2019-Jul-11 19:30N 43°31' E 009°48'611.9
2019-Jul-11 19:00N 43°31' E 009°57'611.7
2019-Jul-11 18:31N 43°30' E 010°04'611.1
2019-Jul-11 18:00N 43°31' E 010°12'4 8.6
2019-Jul-11 17:30N 43°33' E 010°17'1 1.3
2019-Jul-11 16:59N 43°33' E 010°18'0 0.0
2019-Jul-11 16:29N 43°33' E 010°18'0 0.0
2019-Jul-11 16:00N 43°33' E 010°18'0 0.0
2019-Jul-11 15:30N 43°33' E 010°18'0 0.0
2019-Jul-11 15:00N 43°33' E 010°18'0 0.0
2019-Jul-11 14:28N 43°33' E 010°18'0 0.0
2019-Jul-11 13:58N 43°33' E 010°18'0 0.0
2019-Jul-11 13:28N 43°33' E 010°18'0 0.0
2019-Jul-11 12:59N 43°33' E 010°18'0 0.0
2019-Jul-11 12:29N 43°33' E 010°18'0 0.0
2019-Jul-11 11:56N 43°33' E 010°18'0 0.0
2019-Jul-11 11:30N 43°33' E 010°18'0 0.0
2019-Jul-11 11:00N 43°33' E 010°18'0 0.0
2019-Jul-11 10:30N 43°33' E 010°18'0 0.0
2019-Jul-11 09:58N 43°33' E 010°18'0 0.0
2019-Jul-11 09:28N 43°33' E 010°18'0 0.0
2019-Jul-11 08:58N 43°33' E 010°18'0 0.0
2019-Jul-11 08:26N 43°33' E 010°18'0 0.0
2019-Jul-11 07:59N 43°33' E 010°18'0 0.0
2019-Jul-11 07:29N 43°33' E 010°18'0 0.0
2019-Jul-11 07:00N 43°33' E 010°18'0 0.0
2019-Jul-11 06:30N 43°33' E 010°18'0 0.0
2019-Jul-11 06:00N 43°33' E 010°18'0 0.0
2019-Jul-11 05:28N 43°33' E 010°18'0 0.0
2019-Jul-11 05:01N 43°33' E 010°18'1 1.7
2019-Jul-11 04:30N 43°33' E 010°17'2 3.8
2019-Jul-11 04:01N 43°31' E 010°16'510.5
2019-Jul-11 03:30N 43°27' E 010°12'715.0
2019-Jul-11 03:01N 43°19' E 010°09'815.3
2019-Jul-11 02:31N 43°12' E 010°07'816.3
2019-Jul-11 02:01N 43°04' E 010°04'816.6
2019-Jul-11 01:30N 42°56' E 010°01'816.1
2019-Jul-11 01:01N 42°48' E 009°58'7409.8
2019-Jul-11 01:00N 42°42' E 009°54'2 3.5 220 / 51012.010.8 26.019.926.0
2019-Jul-11 00:31N 42°40' E 009°55'816.8
2019-Jul-11 00:00N 42°32' E 009°52'3315.1
2019-Jul-10 21:48N 42°09' E 010°24'5 6.5
2019-Jul-10 21:00N 42°06' E 010°30'   050 / 141010.010.8 26.0 29.0
Track history (hours):
 
Tides and Currents Weather Stations Pressure Air Temp Water Temp Dewpoint Dewpoint Depression Visibility Wind Speed Wind Dir Waves Ship Positions

Norwegian Epic

Last reported at 2019-Jul-20 14:00 UTC. Time now 2019-Jul-20 14:22 UTC.
Position N 39°33' E 002°38'.

Length 329 m; draft 9.2 m.

Type: Passenger vessel. MMSI: 311018500.

Date/timePositionNaut miles runAvg speedWind from/ knotsBaromVisibWave heightAir tempDewpointWater temp
2019-Jul-20 14:00N 39°33' E 002°38'0 0.0
2019-Jul-20 13:28N 39°33' E 002°38'0 0.0
2019-Jul-20 12:58N 39°33' E 002°38'0 0.0
2019-Jul-20 12:28N 39°33' E 002°38'0 0.0
2019-Jul-20 11:59N 39°33' E 002°38'0 0.0
2019-Jul-20 11:29N 39°33' E 002°38'0 0.0
2019-Jul-20 10:59N 39°33' E 002°38'0 0.0
2019-Jul-20 10:30N 39°33' E 002°38'1 1.8
2019-Jul-20 10:00N 39°32' E 002°39'612.0
2019-Jul-20 09:30N 39°27' E 002°35'815.4
2019-Jul-20 09:00N 39°27' E 002°25'1018.1
2019-Jul-20 08:28N 39°34' E 002°16'2518.4
2019-Jul-20 07:05N 39°54' E 002°35'520.1
2019-Jul-20 06:50N 39°57' E 002°40'920.1
2019-Jul-20 06:24N 40°04' E 002°48'718.9
2019-Jul-20 06:01N 40°09' E 002°55'917.6
2019-Jul-20 05:29N 40°16' E 003°03'2418.7
2019-Jul-20 04:13N 40°33' E 003°23'420.7
2019-Jul-20 04:01N 40°37' E 003°27'3620.8
2019-Jul-20 02:17N 41°02' E 004°01'1021.0
2019-Jul-20 01:47N 41°09' E 004°10'721.1
2019-Jul-20 01:27N 41°15' E 004°17'921.0
2019-Jul-20 01:00N 41°21' E 004°26'141182.0
2019-Jul-20 01:00N 41°12' E 004°12'2449.9 180 / 121015.010.8 26.019.926.0
2019-Jul-20 00:31N 41°28' E 004°36'1121.1
2019-Jul-20 00:01N 41°36' E 004°46'1021.0
2019-Jul-19 23:31N 41°43' E 004°56'1121.1
2019-Jul-19 23:00N 41°51' E 005°06'1121.5
2019-Jul-19 22:30N 41°58' E 005°16'1121.3
2019-Jul-19 22:00N 42°06' E 005°26'1021.4
2019-Jul-19 21:31N 42°14' E 005°36'1121.5
2019-Jul-19 21:00N 42°21' E 005°46'1021.3
2019-Jul-19 20:31N 42°29' E 005°56'1121.1
2019-Jul-19 20:01N 42°37' E 006°06'1121.3
2019-Jul-19 19:31N 42°45' E 006°15'1121.4
2019-Jul-19 19:01N 42°52' E 006°26'1121.4
2019-Jul-19 18:31N 42°59' E 006°36'1121.1
2019-Jul-19 18:00N 43°07' E 006°47'1020.7
2019-Jul-19 17:31N 43°16' E 006°52'918.4
2019-Jul-19 17:00N 43°25' E 006°57'714.0
2019-Jul-19 16:30N 43°31' E 007°00'1 2.1
2019-Jul-19 15:59N 43°32' E 007°01'0 0.4
2019-Jul-19 15:26N 43°32' E 007°01'0 0.1
2019-Jul-19 15:00N 43°32' E 007°01'0 0.0
2019-Jul-19 14:30N 43°32' E 007°01'0 0.0
2019-Jul-19 13:57N 43°32' E 007°01'0 0.0
2019-Jul-19 13:28N 43°32' E 007°01'0 0.0
2019-Jul-19 12:58N 43°32' E 007°01'0 0.0
2019-Jul-19 12:28N 43°32' E 007°01'0 0.0
2019-Jul-19 11:59N 43°32' E 007°01'0 0.0
2019-Jul-19 11:29N 43°32' E 007°01'0 0.0
2019-Jul-19 10:59N 43°32' E 007°01'0 0.0
2019-Jul-19 10:30N 43°32' E 007°01'0 0.0
2019-Jul-19 10:00N 43°32' E 007°01'0 0.0
2019-Jul-19 09:30N 43°32' E 007°01'0 0.0
2019-Jul-19 08:58N 43°32' E 007°01'0 0.0
2019-Jul-19 08:28N 43°32' E 007°01'0 0.0
2019-Jul-19 07:58N 43°32' E 007°01'0 0.0
2019-Jul-19 07:29N 43°32' E 007°01'0 0.1
2019-Jul-19 06:59N 43°32' E 007°01'0 0.0
2019-Jul-19 06:29N 43°32' E 007°01'0 0.0
2019-Jul-19 06:00N 43°32' E 007°01'0 0.0
2019-Jul-19 05:30N 43°32' E 007°01'0 0.0
2019-Jul-19 05:00N 43°32' E 007°01'1 1.4
2019-Jul-19 04:30N 43°31' E 007°01'510.8
2019-Jul-19 04:01N 43°28' E 007°06'917.1
2019-Jul-19 03:30N 43°28' E 007°18'917.1
2019-Jul-19 03:00N 43°28' E 007°30'816.8
2019-Jul-19 02:30N 43°29' E 007°42'816.9
2019-Jul-19 02:01N 43°29' E 007°53'917.0
2019-Jul-19 01:30N 43°29' E 008°05'713.4
2019-Jul-19 01:00N 43°29' E 008°14'713.1
2019-Jul-19 00:30N 43°29' E 008°23'713.0
2019-Jul-19 00:00N 43°30' E 008°32'612.8
2019-Jul-18 23:30N 43°30' E 008°41'612.7
2019-Jul-18 23:00N 43°30' E 008°49'612.6
2019-Jul-18 22:30N 43°30' E 008°58'612.2
2019-Jul-18 22:00N 43°31' E 009°07'611.8
2019-Jul-18 21:30N 43°31' E 009°15'612.0
2019-Jul-18 21:00N 43°31' E 009°23'612.3
2019-Jul-18 20:30N 43°31' E 009°31'612.4
2019-Jul-18 20:00N 43°31' E 009°40'612.2
2019-Jul-18 19:30N 43°32' E 009°48'612.1
2019-Jul-18 19:00N 43°31' E 009°57'611.8
2019-Jul-18 18:30N 43°30' E 010°05'611.3
2019-Jul-18 18:00N 43°31' E 010°12'4 8.6
2019-Jul-18 17:30N 43°33' E 010°18'0 0.6
2019-Jul-18 16:57N 43°33' E 010°18'0 0.0
2019-Jul-18 16:30N 43°33' E 010°18'0 0.0
2019-Jul-18 16:00N 43°33' E 010°18'0 0.0
2019-Jul-18 15:28N 43°33' E 010°18'0 0.0
2019-Jul-18 14:58N 43°33' E 010°18'0 0.0
2019-Jul-18 14:28N 43°33' E 010°18'0 0.0
2019-Jul-18 13:59N 43°33' E 010°18'0 0.0
2019-Jul-18 13:29N 43°33' E 010°18'0 0.0
2019-Jul-18 12:59N 43°33' E 010°18'0 0.0
2019-Jul-18 12:30N 43°33' E 010°18'0 0.0
2019-Jul-18 12:00N 43°33' E 010°18'0 0.0
2019-Jul-18 11:30N 43°33' E 010°18'0 0.0
2019-Jul-18 10:58N 43°33' E 010°18'0 0.0
2019-Jul-18 10:28N 43°33' E 010°18'0 0.0
2019-Jul-18 09:55N 43°33' E 010°18'0 0.0
2019-Jul-18 09:29N 43°33' E 010°18'0 0.0
2019-Jul-18 08:59N 43°33' E 010°18'0 0.0
2019-Jul-18 08:29N 43°33' E 010°18'0 0.0
2019-Jul-18 08:00N 43°33' E 010°18'0 0.0
2019-Jul-18 07:30N 43°33' E 010°18'0 0.0
2019-Jul-18 07:00N 43°33' E 010°18'0 0.0
2019-Jul-18 06:25N 43°33' E 010°18'0 0.0
2019-Jul-18 05:58N 43°33' E 010°18'0 0.0
2019-Jul-18 05:28N 43°33' E 010°18'0 0.0
2019-Jul-18 04:59N 43°33' E 010°18'0 0.6
2019-Jul-18 04:30N 43°33' E 010°18'3 6.3
2019-Jul-18 04:00N 43°31' E 010°15'713.1
2019-Jul-18 03:30N 43°25' E 010°11'815.3
2019-Jul-18 03:00N 43°17' E 010°09'816.6
2019-Jul-18 02:30N 43°09' E 010°06'816.6
2019-Jul-18 02:00N 43°01' E 010°03'816.3
2019-Jul-18 01:30N 42°53' E 009°60'816.2
2019-Jul-18 01:00N 42°45' E 009°57'816.4
2019-Jul-18 00:30N 42°37' E 009°55'816.5
2019-Jul-18 00:00N 42°29' E 009°55'1016.3
2019-Jul-17 23:23N 42°19' E 009°55'4118.5
2019-Jul-17 21:09N 42°02' E 010°46'318.9
2019-Jul-17 21:00N 42°01' E 010°50'918.8
2019-Jul-17 20:30N 41°58' E 011°01'1018.7
2019-Jul-17 19:58N 41°57' E 011°15'817.7
2019-Jul-17 19:30N 41°58' E 011°26'114 5.0
2019-Jul-16 20:42N 40°34' E 013°08'420.2
2019-Jul-16 20:30N 40°33' E 013°13'1020.4
2019-Jul-16 20:00N 40°31' E 013°26'1020.2
2019-Jul-16 19:31N 40°29' E 013°39'816.0
2019-Jul-16 19:01N 40°30' E 013°50'816.7
2019-Jul-16 18:30N 40°36' E 013°58'918.4
2019-Jul-16 18:00N 40°41' E 014°08'918.4
2019-Jul-16 17:30N 40°48' E 014°16'2 4.7
2019-Jul-16 16:59N 40°50' E 014°16'0 0.0
2019-Jul-16 16:29N 40°50' E 014°16'0 0.0
2019-Jul-16 16:00N 40°50' E 014°16'0 0.0
2019-Jul-16 15:30N 40°50' E 014°16'0 0.0
2019-Jul-16 15:00N 40°50' E 014°16'0 0.0
2019-Jul-16 14:28N 40°50' E 014°16'0 0.0
2019-Jul-16 13:58N 40°50' E 014°16'0 0.0
2019-Jul-16 13:28N 40°50' E 014°16'0 0.0
2019-Jul-16 12:59N 40°50' E 014°16'0 0.0
2019-Jul-16 12:29N 40°50' E 014°16'0 0.0
2019-Jul-16 11:59N 40°50' E 014°16'0 0.0
2019-Jul-16 11:30N 40°50' E 014°16'0 0.0
2019-Jul-16 11:00N 40°50' E 014°16'0 0.0
2019-Jul-16 10:27N 40°50' E 014°16'0 0.0
2019-Jul-16 09:58N 40°50' E 014°16'0 0.0
2019-Jul-16 09:28N 40°50' E 014°16'0 0.0
2019-Jul-16 08:55N 40°50' E 014°16'0 0.0
2019-Jul-16 08:29N 40°50' E 014°16'0 0.0
2019-Jul-16 07:59N 40°50' E 014°16'0 0.0
2019-Jul-16 07:29N 40°50' E 014°16'0 0.0
2019-Jul-16 07:00N 40°50' E 014°16'0 0.0
2019-Jul-16 06:30N 40°50' E 014°16'0 0.0
2019-Jul-16 06:00N 40°50' E 014°16'0 0.0
2019-Jul-16 05:28N 40°50' E 014°16'0 0.0
2019-Jul-16 04:58N 40°50' E 014°16'0 0.3
2019-Jul-16 04:30N 40°50' E 014°16'2 3.4
2019-Jul-16 04:00N 40°49' E 014°17'713.1
2019-Jul-16 03:30N 40°44' E 014°12'816.2
2019-Jul-16 03:00N 40°39' E 014°04'815.9
2019-Jul-16 02:30N 40°38' E 013°53'815.9
2019-Jul-16 02:00N 40°39' E 013°43'815.9
2019-Jul-16 01:30N 40°40' E 013°32'714.1
2019-Jul-16 01:00N 40°36' E 013°24'30615.3 050 / 351005.010.8 23.018.324.0
2019-Jul-15 05:00N 41°12' E 006°42'7719.2 270 / 25 27.0 24.0 26.0
2019-Jul-15 01:00N 41°12' E 005°00'2913.7 300 / 35 10.8 25.022.026.0
2019-Jul-14 22:52N 41°16' E 004°22'716.7
2019-Jul-14 22:28N 41°16' E 004°13'716.6
2019-Jul-14 22:00N 41°16' E 004°03'816.4
2019-Jul-14 21:30N 41°16' E 003°52'816.5
2019-Jul-14 21:00N 41°16' E 003°41'816.7
2019-Jul-14 20:30N 41°16' E 003°30'816.8
2019-Jul-14 20:00N 41°16' E 003°19'816.8
2019-Jul-14 19:31N 41°16' E 003°07'4315.9
2019-Jul-14 16:48N 41°18' E 002°10'4 0.9
2019-Jul-14 13:06N 41°22' E 002°11'0 0.0
2019-Jul-14 13:00N 41°22' E 002°11'0 0.0
2019-Jul-14 12:30N 41°22' E 002°11'0 0.0
2019-Jul-14 11:58N 41°22' E 002°11'0 0.0
2019-Jul-14 11:28N 41°22' E 002°11'0 0.0
2019-Jul-14 10:58N 41°22' E 002°11'0 0.0
2019-Jul-14 10:29N 41°22' E 002°11'0 0.0
2019-Jul-14 09:59N 41°22' E 002°11'0 0.0
2019-Jul-14 09:29N 41°22' E 002°11'0 0.0
2019-Jul-14 09:00N 41°22' E 002°11'3 0.5
2019-Jul-14 02:03N 41°18' E 002°10'0 7.3
2019-Jul-14 02:00N 41°18' E 002°11'1015.0
2019-Jul-14 01:20N 41°08' E 002°11'2015.3
2019-Jul-14 00:00N 40°48' E 002°06'7919.6 050 / 101012.010.8 25.022.026.0
2019-Jul-13 20:00N 39°30' E 002°18'4 6.9 100 / 101013.010.8 27.0 28.0
2019-Jul-13 19:25N 39°29' E 002°23'715.5
2019-Jul-13 19:00N 39°25' E 002°30'815.3
2019-Jul-13 18:30N 39°31' E 002°37'2 4.8
2019-Jul-13 18:00N 39°33' E 002°38'0 0.0
2019-Jul-13 17:30N 39°33' E 002°38'0 0.0
2019-Jul-13 17:00N 39°33' E 002°38'0 0.0
2019-Jul-13 16:30N 39°33' E 002°38'0 0.0
2019-Jul-13 16:01N 39°33' E 002°38'0 0.0
2019-Jul-13 15:28N 39°33' E 002°38'0 0.0
2019-Jul-13 14:58N 39°33' E 002°38'0 0.0
2019-Jul-13 14:29N 39°33' E 002°38'0 0.0
2019-Jul-13 13:59N 39°33' E 002°38'0 0.0
2019-Jul-13 13:29N 39°33' E 002°38'0 0.0
2019-Jul-13 13:00N 39°33' E 002°38'0 0.0
2019-Jul-13 12:18N 39°33' E 002°38'0 0.0
2019-Jul-13 12:00N 39°33' E 002°38'0 0.0
2019-Jul-13 11:31N 39°33' E 002°38'0 0.0
2019-Jul-13 10:58N 39°33' E 002°38'0 0.0
2019-Jul-13 10:30N 39°33' E 002°38'1 2.7
2019-Jul-13 10:00N 39°32' E 002°38'815.8
2019-Jul-13 09:30N 39°25' E 002°32'2914.1
2019-Jul-13 07:27N 39°54' E 002°37'1721.6
2019-Jul-13 06:38N 40°07' E 002°52'1022.4
2019-Jul-13 06:11N 40°15' E 003°01'10320.4
2019-Jul-13 01:07N 41°28' E 004°37'219.8
2019-Jul-13 01:00N 41°30' E 004°39'2133.6
2019-Jul-13 01:00N 41°30' E 004°36'1123.6 270 / 361012.010.8 26.021.526.0
2019-Jul-13 00:30N 41°37' E 004°48'1019.6
2019-Jul-13 00:00N 41°44' E 004°58'1019.6
2019-Jul-12 23:30N 41°50' E 005°07'1019.5
2019-Jul-12 23:00N 41°57' E 005°17'1019.2
2019-Jul-12 22:30N 42°04' E 005°26'1019.2
2019-Jul-12 22:00N 42°11' E 005°35'5381.8
2019-Jul-12 22:00N 42°12' E 005°42'2516.5 270 / 351012.010.8 25.0 27.0
2019-Jul-12 20:29N 42°32' E 006°01'919.4
2019-Jul-12 20:00N 42°39' E 006°10'1019.3
2019-Jul-12 19:28N 42°46' E 006°21'1019.0
2019-Jul-12 18:57N 42°53' E 006°30'919.7
2019-Jul-12 18:30N 42°60' E 006°38'1020.1
2019-Jul-12 18:00N 43°07' E 006°47'1020.8
2019-Jul-12 17:30N 43°17' E 006°53'1019.7
2019-Jul-12 17:00N 43°26' E 006°58'612.5
2019-Jul-12 16:30N 43°32' E 007°00'1 1.2
2019-Jul-12 16:00N 43°32' E 007°01'0 0.2
2019-Jul-12 15:30N 43°32' E 007°01'0 0.0
2019-Jul-12 15:00N 43°32' E 007°01'0 0.0
2019-Jul-12 14:28N 43°32' E 007°01'0 0.0
2019-Jul-12 13:58N 43°32' E 007°01'0 0.0
2019-Jul-12 13:28N 43°32' E 007°01'0 0.0
2019-Jul-12 12:59N 43°32' E 007°01'0 0.0
2019-Jul-12 12:26N 43°32' E 007°01'0 0.0
2019-Jul-12 11:59N 43°32' E 007°01'0 0.0
2019-Jul-12 11:30N 43°32' E 007°01'0 0.0
2019-Jul-12 11:00N 43°32' E 007°01'0 0.0
2019-Jul-12 10:30N 43°32' E 007°01'0 0.0
2019-Jul-12 09:58N 43°32' E 007°01'0 0.0
2019-Jul-12 09:28N 43°32' E 007°01'0 0.0
2019-Jul-12 08:58N 43°32' E 007°01'0 0.0
2019-Jul-12 08:29N 43°32' E 007°01'0 0.0
2019-Jul-12 07:59N 43°32' E 007°01'0 0.0
2019-Jul-12 07:29N 43°32' E 007°01'0 0.0
2019-Jul-12 06:57N 43°32' E 007°01'0 0.0
2019-Jul-12 06:30N 43°32' E 007°01'0 0.0
2019-Jul-12 06:00N 43°32' E 007°01'0 0.0
2019-Jul-12 05:28N 43°32' E 007°01'0 0.0
2019-Jul-12 04:58N 43°32' E 007°01'1 1.2
2019-Jul-12 04:30N 43°32' E 007°01'5 9.7
2019-Jul-12 04:00N 43°28' E 007°05'816.4
2019-Jul-12 03:30N 43°29' E 007°17'816.6
2019-Jul-12 03:00N 43°28' E 007°28'1716.8
2019-Jul-12 02:00N 43°29' E 007°51'816.7
2019-Jul-12 01:30N 43°29' E 008°03'816.6
2019-Jul-12 01:00N 43°29' E 008°14'713.7
2019-Jul-12 00:30N 43°30' E 008°24'612.4
2019-Jul-12 00:01N 43°30' E 008°32'612.4
2019-Jul-11 23:31N 43°30' E 008°41'712.3
2019-Jul-11 22:58N 43°30' E 008°50'612.3
2019-Jul-11 22:30N 43°30' E 008°58'612.4
2019-Jul-11 22:00N 43°31' E 009°06'612.3
2019-Jul-11 21:30N 43°31' E 009°15'612.3
2019-Jul-11 21:01N 43°31' E 009°23'612.1
2019-Jul-11 20:30N 43°31' E 009°32'612.2
2019-Jul-11 20:00N 43°31' E 009°40'3189.5
2019-Jul-11 20:00N 43°30' E 009°36'918.7 200 / 51012.010.8 25.0 28.0
2019-Jul-11 19:30N 43°31' E 009°48'611.9
2019-Jul-11 19:00N 43°31' E 009°57'611.7
2019-Jul-11 18:31N 43°30' E 010°04'611.1
2019-Jul-11 18:00N 43°31' E 010°12'4 8.6
2019-Jul-11 17:30N 43°33' E 010°17'1 1.3
2019-Jul-11 16:59N 43°33' E 010°18'0 0.0
2019-Jul-11 16:29N 43°33' E 010°18'0 0.0
2019-Jul-11 16:00N 43°33' E 010°18'0 0.0
2019-Jul-11 15:30N 43°33' E 010°18'0 0.0
2019-Jul-11 15:00N 43°33' E 010°18'0 0.0
2019-Jul-11 14:28N 43°33' E 010°18'0 0.0
2019-Jul-11 13:58N 43°33' E 010°18'0 0.0
2019-Jul-11 13:28N 43°33' E 010°18'0 0.0
2019-Jul-11 12:59N 43°33' E 010°18'0 0.0
2019-Jul-11 12:29N 43°33' E 010°18'0 0.0
2019-Jul-11 11:56N 43°33' E 010°18'0 0.0
2019-Jul-11 11:30N 43°33' E 010°18'0 0.0
2019-Jul-11 11:00N 43°33' E 010°18'0 0.0
2019-Jul-11 10:30N 43°33' E 010°18'0 0.0
2019-Jul-11 09:58N 43°33' E 010°18'0 0.0
2019-Jul-11 09:28N 43°33' E 010°18'0 0.0
2019-Jul-11 08:58N 43°33' E 010°18'0 0.0
2019-Jul-11 08:26N 43°33' E 010°18'0 0.0
2019-Jul-11 07:59N 43°33' E 010°18'0 0.0
2019-Jul-11 07:29N 43°33' E 010°18'0 0.0
2019-Jul-11 07:00N 43°33' E 010°18'0 0.0
2019-Jul-11 06:30N 43°33' E 010°18'0 0.0
2019-Jul-11 06:00N 43°33' E 010°18'0 0.0
2019-Jul-11 05:28N 43°33' E 010°18'0 0.0
2019-Jul-11 05:01N 43°33' E 010°18'1 1.7
2019-Jul-11 04:30N 43°33' E 010°17'2 3.8
2019-Jul-11 04:01N 43°31' E 010°16'510.5
2019-Jul-11 03:30N 43°27' E 010°12'715.0
2019-Jul-11 03:01N 43°19' E 010°09'815.3
2019-Jul-11 02:31N 43°12' E 010°07'816.3
2019-Jul-11 02:01N 43°04' E 010°04'816.6
2019-Jul-11 01:30N 42°56' E 010°01'816.1
2019-Jul-11 01:01N 42°48' E 009°58'7409.8
2019-Jul-11 01:00N 42°42' E 009°54'2 3.5 220 / 51012.010.8 26.019.926.0
2019-Jul-11 00:31N 42°40' E 009°55'816.8
2019-Jul-11 00:00N 42°32' E 009°52'3315.1
2019-Jul-10 21:48N 42°09' E 010°24'5 6.5
2019-Jul-10 21:00N 42°06' E 010°30'   050 / 141010.010.8 26.0 29.0

Dump ship's entire track history